createdAt,value
2023-03-03T00:01:02.903Z,11.90
2023-03-03T00:09:09.070Z,11.70
2023-03-03T00:17:24.904Z,11.60
2023-03-03T00:25:34.112Z,11.70
2023-03-03T00:33:50.797Z,11.50
2023-03-03T00:41:57.361Z,11.90
2023-03-03T00:50:34.191Z,11.90
2023-03-03T00:58:39.945Z,12.00
2023-03-03T01:06:48.129Z,11.90
2023-03-03T01:14:55.541Z,12.10
2023-03-03T01:23:03.780Z,12.00
2023-03-03T01:31:10.597Z,11.90
2023-03-03T01:39:19.002Z,12.00
2023-03-03T01:47:29.819Z,12.00
2023-03-03T01:55:40.433Z,12.30
2023-03-03T02:03:47.417Z,12.00
2023-03-03T02:12:03.128Z,11.40
2023-03-03T02:20:15.686Z,11.90
2023-03-03T02:28:24.322Z,12.10
2023-03-03T02:36:33.268Z,12.20
2023-03-03T02:44:41.614Z,12.10
2023-03-03T02:52:47.095Z,12.30
2023-03-03T03:00:57.121Z,12.20
2023-03-03T03:09:03.482Z,12.20
2023-03-03T03:17:11.830Z,12.20
2023-03-03T03:25:17.883Z,12.30
2023-03-03T03:33:28.376Z,12.40
2023-03-03T03:41:34.762Z,12.40
2023-03-03T03:49:42.931Z,12.50
2023-03-03T03:57:48.416Z,12.50
2023-03-03T04:05:58.714Z,12.50
2023-03-03T04:14:05.383Z,12.70
2023-03-03T04:22:14.722Z,12.70
2023-03-03T04:30:20.558Z,12.70
2023-03-03T04:38:31.486Z,12.70
2023-03-03T04:46:37.131Z,12.70
2023-03-03T04:54:46.041Z,12.60
2023-03-03T05:02:52.119Z,12.60
2023-03-03T05:11:01.756Z,12.80
2023-03-03T05:19:07.248Z,12.80
2023-03-03T05:27:15.544Z,12.80
2023-03-03T05:35:21.501Z,12.90
2023-03-03T05:43:29.587Z,12.90
2023-03-03T05:51:35.171Z,12.90
2023-03-03T05:59:43.649Z,12.80
2023-03-03T06:07:49.568Z,12.80
2023-03-03T06:15:58.223Z,13.00
2023-03-03T06:24:03.751Z,13.00
2023-03-03T06:32:12.272Z,13.00
2023-03-03T06:40:18.069Z,13.10
2023-03-03T06:48:26.111Z,13.20
2023-03-03T06:56:33.137Z,12.70
2023-03-03T07:04:41.478Z,12.90
2023-03-03T07:12:47.068Z,13.00
2023-03-03T07:20:55.388Z,13.00
2023-03-03T07:29:03.717Z,13.20
2023-03-03T07:37:20.368Z,13.40
2023-03-03T07:45:29.977Z,13.60
2023-03-03T07:53:39.541Z,13.20
2023-03-03T08:01:47.117Z,12.60
2023-03-03T08:10:02.262Z,13.60
2023-03-03T08:18:28.443Z,14.00
2023-03-03T08:26:39.914Z,14.60
2023-03-03T08:34:45.453Z,14.80
2023-03-03T08:42:54.840Z,15.10
2023-03-03T08:51:00.696Z,15.50
2023-03-03T08:59:08.982Z,15.60
2023-03-03T09:07:14.606Z,15.90
2023-03-03T09:15:30.494Z,15.90
2023-03-03T09:23:38.767Z,15.80
2023-03-03T09:31:48.875Z,15.90
2023-03-03T09:39:56.215Z,16.00
2023-03-03T09:48:40.513Z,16.30
2023-03-03T09:56:57.982Z,16.50
2023-03-03T10:05:17.652Z,16.60
2023-03-03T10:13:44.876Z,16.80
2023-03-03T10:21:54.553Z,16.80
2023-03-03T10:30:13.905Z,16.80
2023-03-03T10:38:39.946Z,16.80
2023-03-03T10:47:04.579Z,17.00
2023-03-03T10:55:39.569Z,17.10
2023-03-03T11:04:27.398Z,16.90
2023-03-03T11:12:49.149Z,17.10
2023-03-03T11:21:03.590Z,17.20
2023-03-03T11:29:28.596Z,17.00
2023-03-03T11:37:43.107Z,16.80
2023-03-03T11:45:54.566Z,16.70
2023-03-03T11:54:06.879Z,16.40
2023-03-03T12:02:33.645Z,16.40
2023-03-03T12:10:47.815Z,16.40
2023-03-03T12:19:18.274Z,16.20
2023-03-03T12:27:31.945Z,16.40
2023-03-03T12:35:51.039Z,16.30
2023-03-03T12:44:02.883Z,15.80
2023-03-03T12:52:25.267Z,16.10
2023-03-03T13:00:44.508Z,16.40
2023-03-03T13:09:05.841Z,16.40
2023-03-03T13:17:24.520Z,16.30
2023-03-03T13:25:50.682Z,16.20
2023-03-03T13:33:58.446Z,16.20
2023-03-03T13:42:12.172Z,16.10
2023-03-03T13:50:25.399Z,16.10
2023-03-03T13:58:39.721Z,16.10
2023-03-03T14:06:51.376Z,16.10
2023-03-03T14:15:07.055Z,15.80
2023-03-03T14:23:19.732Z,15.90
2023-03-03T14:31:30.927Z,15.70
2023-03-03T14:39:38.557Z,15.70
2023-03-03T14:47:50.077Z,15.60
2023-03-03T14:55:56.807Z,15.60
2023-03-03T15:04:07.258Z,15.60
2023-03-03T15:12:38.120Z,15.60
2023-03-03T15:20:49.878Z,15.50
2023-03-03T15:29:07.656Z,15.30
2023-03-03T15:37:30.586Z,15.30
2023-03-03T15:45:48.046Z,15.20
2023-03-03T15:54:20.972Z,15.20
2023-03-03T16:02:31.809Z,15.10
2023-03-03T16:10:54.935Z,15.00
2023-03-03T16:19:14.298Z,15.10
2023-03-03T16:27:27.719Z,14.90
2023-03-03T16:35:35.200Z,14.70
2023-03-03T16:43:53.304Z,14.80
2023-03-03T16:52:06.893Z,14.80
2023-03-03T17:00:23.018Z,13.20
2023-03-03T17:08:49.885Z,14.10
2023-03-03T17:17:03.510Z,14.30
2023-03-03T17:25:19.234Z,14.40
2023-03-03T17:33:41.915Z,14.40
2023-03-03T17:41:56.252Z,14.30
2023-03-03T17:50:24.085Z,14.30
2023-03-03T17:58:54.411Z,14.00
2023-03-03T18:07:19.699Z,14.10
2023-03-03T18:15:39.486Z,14.20
2023-03-03T18:23:49.369Z,14.20
2023-03-03T18:32:19.350Z,14.20
2023-03-03T18:40:36.105Z,14.20
2023-03-03T18:48:51.888Z,14.30
2023-03-03T18:57:21.499Z,14.20
2023-03-03T19:05:29.114Z,14.10
2023-03-03T19:13:52.454Z,14.00
2023-03-03T19:22:25.258Z,13.90
2023-03-03T19:30:48.240Z,13.90
2023-03-03T19:39:14.733Z,13.80
2023-03-03T19:47:33.002Z,13.70
2023-03-03T19:55:53.179Z,13.70
2023-03-03T20:04:22.560Z,13.70
2023-03-03T20:12:36.445Z,13.60
2023-03-03T20:21:14.370Z,13.50
2023-03-03T20:29:40.668Z,13.60
2023-03-03T20:37:59.564Z,13.30
2023-03-03T20:46:14.617Z,13.10
2023-03-03T20:54:31.410Z,13.20
2023-03-03T21:02:43.963Z,13.20
2023-03-03T21:10:59.664Z,13.20
2023-03-03T21:19:10.071Z,13.30
2023-03-03T21:27:31.450Z,13.20
2023-03-03T21:35:57.160Z,13.20
2023-03-03T21:44:05.384Z,12.90
2023-03-03T21:52:11.121Z,12.80
2023-03-03T22:00:20.523Z,12.60
2023-03-03T22:08:28.086Z,12.40
2023-03-03T22:16:37.403Z,12.50
2023-03-03T22:24:42.872Z,12.60
2023-03-03T22:32:52.472Z,12.70
2023-03-03T22:41:00.183Z,12.70
2023-03-03T22:49:08.379Z,12.60
2023-03-03T22:57:13.883Z,12.40
2023-03-03T23:05:22.111Z,12.40
2023-03-03T23:13:28.082Z,12.30
2023-03-03T23:21:36.376Z,12.20
2023-03-03T23:29:42.190Z,12.10
2023-03-03T23:37:50.415Z,12.00
2023-03-03T23:45:56.350Z,11.90
2023-03-03T23:54:04.528Z,11.70
